createdAt,value
2023-02-27T00:00:44.601Z,102946.38
2023-02-27T00:03:11.314Z,102946.53
2023-02-27T00:05:37.909Z,102957.97
2023-02-27T00:08:06.946Z,102974.06
2023-02-27T00:10:35.770Z,102945.69
2023-02-27T00:13:02.380Z,102944.91
2023-02-27T00:15:32.240Z,102951.16
2023-02-27T00:17:59.498Z,102952.16
2023-02-27T00:20:26.679Z,102969.84
2023-02-27T00:22:55.619Z,102953.06
2023-02-27T00:25:24.609Z,102941.53
2023-02-27T00:27:51.434Z,102935.25
2023-02-27T00:30:18.080Z,102955.69
2023-02-27T00:32:44.921Z,102955.63
2023-02-27T00:35:14.991Z,102958.25
2023-02-27T00:37:44.134Z,102937.81
2023-02-27T00:40:11.476Z,102929.03
2023-02-27T00:42:38.441Z,102954.69
2023-02-27T00:45:08.265Z,102890.00
2023-02-27T00:47:38.421Z,102952.88
2023-02-27T00:50:06.032Z,102957.31
2023-02-27T00:52:33.935Z,102943.28
2023-02-27T00:55:01.146Z,102958.34
2023-02-27T00:57:28.156Z,102925.59
2023-02-27T00:59:54.765Z,102917.69
2023-02-27T01:02:21.521Z,102956.72
2023-02-27T01:04:53.965Z,102927.59
2023-02-27T01:07:23.185Z,102928.41
2023-02-27T01:09:51.966Z,102935.50
2023-02-27T01:12:18.728Z,102949.66
2023-02-27T01:14:45.367Z,102907.13
2023-02-27T01:17:14.489Z,102928.41
2023-02-27T01:19:41.096Z,102927.56
2023-02-27T01:22:07.653Z,102945.22
2023-02-27T01:24:36.935Z,102921.38
2023-02-27T01:27:03.532Z,102952.50
2023-02-27T01:29:30.250Z,102951.63
2023-02-27T01:31:56.859Z,102949.88
2023-02-27T01:34:26.506Z,102937.59
2023-02-27T01:36:53.132Z,102922.50
2023-02-27T01:39:20.898Z,102930.44
2023-02-27T01:41:49.762Z,102934.00
2023-02-27T01:44:18.662Z,102946.34
2023-02-27T01:46:45.324Z,102946.41
2023-02-27T01:49:24.278Z,102942.88
2023-02-27T01:52:11.957Z,102911.91
2023-02-27T01:54:44.781Z,102934.03
2023-02-27T01:57:11.585Z,102915.53
2023-02-27T01:59:41.156Z,102908.53
2023-02-27T02:02:16.955Z,102931.56
2023-02-27T02:04:44.412Z,102902.41
2023-02-27T02:07:14.785Z,102921.03
2023-02-27T02:09:51.353Z,102934.28
2023-02-27T02:12:27.203Z,102938.78
2023-02-27T02:14:53.827Z,102916.66
2023-02-27T02:17:29.399Z,102924.56
2023-02-27T02:20:14.693Z,102922.81
2023-02-27T02:23:18.865Z,102925.50
2023-02-27T02:25:54.840Z,102923.78
2023-02-27T02:28:55.285Z,102923.81
2023-02-27T02:31:40.824Z,102931.88
2023-02-27T02:34:10.474Z,102928.28
2023-02-27T02:36:42.638Z,102929.16
2023-02-27T02:39:27.412Z,102929.22
2023-02-27T02:42:03.972Z,102928.34
2023-02-27T02:44:33.554Z,102934.59
2023-02-27T02:47:00.094Z,102934.59
2023-02-27T02:49:35.956Z,102938.13
2023-02-27T02:52:08.092Z,102939.00
2023-02-27T02:54:45.419Z,102916.94
2023-02-27T02:57:19.657Z,102931.97
2023-02-27T03:00:06.421Z,102932.91
2023-02-27T03:02:44.954Z,102934.66
2023-02-27T03:05:20.568Z,102943.53
2023-02-27T03:08:03.039Z,102916.09
2023-02-27T03:10:59.784Z,102928.59
2023-02-27T03:13:30.944Z,102939.25
2023-02-27T03:16:23.739Z,102945.53
2023-02-27T03:18:55.722Z,102887.25
2023-02-27T03:21:30.085Z,102915.56
2023-02-27T03:24:02.533Z,102951.94
2023-02-27T03:26:36.558Z,102955.56
2023-02-27T03:29:14.903Z,102927.22
2023-02-27T03:31:57.319Z,102959.16
2023-02-27T03:34:39.509Z,102919.38
2023-02-27T03:37:27.754Z,102960.97
2023-02-27T03:40:06.746Z,102959.22
2023-02-27T03:42:40.388Z,102917.69
2023-02-27T03:45:19.504Z,102963.72
2023-02-27T03:47:46.748Z,102955.84
2023-02-27T03:50:13.874Z,102967.31
2023-02-27T03:52:40.894Z,102965.59
2023-02-27T03:55:20.980Z,102970.03
2023-02-27T03:57:49.322Z,102966.47
2023-02-27T04:00:22.123Z,102939.91
2023-02-27T04:02:54.640Z,102951.47
2023-02-27T04:05:22.073Z,102965.69
2023-02-27T04:08:15.628Z,102961.31
2023-02-27T04:10:56.343Z,102980.84
2023-02-27T04:13:22.844Z,102978.16
2023-02-27T04:16:23.393Z,102976.41
2023-02-27T04:18:56.929Z,102981.75
2023-02-27T04:21:28.814Z,102991.59
2023-02-27T04:24:00.357Z,102997.84
2023-02-27T04:26:32.977Z,103001.38
2023-02-27T04:29:07.920Z,102992.50
2023-02-27T04:32:17.592Z,103000.53
2023-02-27T04:34:55.801Z,102998.81
2023-02-27T04:37:48.782Z,102999.75
2023-02-27T04:40:24.344Z,103006.03
2023-02-27T04:42:55.040Z,102998.00
2023-02-27T04:45:24.555Z,103000.72
2023-02-27T04:48:01.551Z,102990.91
2023-02-27T04:50:34.727Z,103012.28
2023-02-27T04:53:12.007Z,102990.94
2023-02-27T04:55:47.254Z,103006.84
2023-02-27T04:58:13.814Z,103013.06
2023-02-27T05:00:48.174Z,103003.25
2023-02-27T05:03:24.182Z,103011.25
2023-02-27T05:05:55.469Z,103012.16
2023-02-27T05:08:29.056Z,102991.75
2023-02-27T05:11:07.916Z,103016.63
2023-02-27T05:13:42.163Z,103008.59
2023-02-27T05:16:14.330Z,103006.00
2023-02-27T05:18:40.924Z,102998.88
2023-02-27T05:21:30.827Z,102999.78
2023-02-27T05:24:38.974Z,103015.81
2023-02-27T05:27:24.042Z,102979.44
2023-02-27T05:29:52.935Z,102996.25
2023-02-27T05:32:32.071Z,102993.59
2023-02-27T05:35:22.045Z,102985.59
2023-02-27T05:37:53.956Z,103019.31
2023-02-27T05:40:28.294Z,102998.94
2023-02-27T05:43:05.674Z,103005.09
2023-02-27T05:45:36.573Z,103002.53
2023-02-27T05:48:15.034Z,103008.75
2023-02-27T05:50:45.006Z,103022.06
2023-02-27T05:53:17.539Z,103038.16
2023-02-27T05:55:51.068Z,103038.19
2023-02-27T05:58:35.136Z,103040.88
2023-02-27T06:01:06.041Z,103040.03
2023-02-27T06:03:35.381Z,103021.44
2023-02-27T06:06:05.255Z,103047.16
2023-02-27T06:08:32.693Z,103027.66
2023-02-27T06:11:01.834Z,103056.09
2023-02-27T06:13:30.818Z,103054.31
2023-02-27T06:15:57.430Z,103034.78
2023-02-27T06:18:24.091Z,103059.69
2023-02-27T06:20:53.867Z,103060.59
2023-02-27T06:23:20.502Z,103060.53
2023-02-27T06:25:49.574Z,103066.78
2023-02-27T06:28:17.955Z,103056.13
2023-02-27T06:30:47.441Z,103062.34
2023-02-27T06:33:26.878Z,103071.19
2023-02-27T06:35:58.586Z,103073.88
2023-02-27T06:38:26.819Z,103074.78
2023-02-27T06:40:58.759Z,103082.81
2023-02-27T06:44:10.869Z,103048.19
2023-02-27T06:46:40.157Z,103046.41
2023-02-27T06:49:10.281Z,103088.13
2023-02-27T06:51:39.986Z,103093.41
2023-02-27T06:54:10.582Z,103098.75
2023-02-27T06:56:37.239Z,103106.78
2023-02-27T06:59:03.847Z,103084.56
2023-02-27T07:01:30.672Z,103107.63
2023-02-27T07:03:57.653Z,103097.88
2023-02-27T07:07:33.329Z,103123.63
2023-02-27T07:09:12.534Z,103121.84
2023-02-27T07:11:40.077Z,103127.16
2023-02-27T07:14:07.773Z,103131.59
2023-02-27T07:16:34.740Z,103113.81
2023-02-27T07:19:19.327Z,103111.06
2023-02-27T07:21:46.762Z,103135.03
2023-02-27T07:24:16.139Z,103136.75
2023-02-27T07:26:48.372Z,103129.59
2023-02-27T07:29:20.524Z,103118.97
2023-02-27T07:32:07.320Z,103126.81
2023-02-27T07:34:38.388Z,103130.38
2023-02-27T07:37:05.568Z,103135.63
2023-02-27T07:39:35.736Z,103133.84
2023-02-27T07:42:02.823Z,103132.88
2023-02-27T07:44:30.723Z,103127.44
2023-02-27T07:46:57.971Z,103122.97
2023-02-27T07:49:31.289Z,103130.81
2023-02-27T07:52:00.797Z,103122.72
2023-02-27T07:54:31.330Z,103124.41
2023-02-27T07:56:58.861Z,103114.53
2023-02-27T07:59:25.530Z,103114.44
2023-02-27T08:01:54.792Z,103099.34
2023-02-27T08:04:21.899Z,103083.28
2023-02-27T08:06:48.608Z,103095.63
2023-02-27T08:09:15.540Z,103109.72
2023-02-27T08:11:42.177Z,102898.81
2023-02-27T08:14:09.226Z,103113.03
2023-02-27T08:16:38.322Z,103101.34
2023-02-27T08:19:05.112Z,103095.84
2023-02-27T08:21:32.157Z,103116.88
2023-02-27T08:24:00.108Z,103121.16
2023-02-27T08:26:27.995Z,103128.03
2023-02-27T08:28:55.805Z,103136.75
2023-02-27T08:31:24.034Z,103126.84
2023-02-27T08:33:58.084Z,103130.25
2023-02-27T08:36:34.439Z,103100.97
2023-02-27T08:39:02.227Z,103138.97
2023-02-27T08:41:29.883Z,103145.91
2023-02-27T08:43:57.837Z,103152.06
2023-02-27T08:46:25.289Z,103155.50
2023-02-27T08:48:52.971Z,103144.53
2023-02-27T08:51:19.999Z,103154.19
2023-02-27T08:53:47.584Z,103137.09
2023-02-27T08:56:15.532Z,103151.13
2023-02-27T08:58:43.627Z,103147.31
2023-02-27T09:01:11.088Z,103151.59
2023-02-27T09:03:38.719Z,103155.91
2023-02-27T09:06:05.998Z,103162.94
2023-02-27T09:08:34.100Z,103144.06
2023-02-27T09:11:02.380Z,103158.91
2023-02-27T09:13:29.483Z,103137.78
2023-02-27T09:15:56.934Z,103155.09
2023-02-27T09:18:23.612Z,103154.81
2023-02-27T09:20:51.999Z,103155.50
2023-02-27T09:23:21.107Z,103148.53
2023-02-27T09:25:48.037Z,103134.88
2023-02-27T09:28:15.430Z,103135.78
2023-02-27T09:30:44.447Z,103135.41
2023-02-27T09:33:11.077Z,103141.25
2023-02-27T09:35:37.741Z,103136.28
2023-02-27T09:38:04.734Z,103159.38
2023-02-27T09:40:37.816Z,103166.56
2023-02-27T09:43:14.391Z,103145.03
2023-02-27T09:45:42.371Z,103148.34
2023-02-27T09:48:33.379Z,103153.47
2023-02-27T09:51:03.583Z,103152.50
2023-02-27T09:53:40.251Z,103162.41
2023-02-27T09:56:15.540Z,103152.59
2023-02-27T09:59:01.215Z,103159.84
2023-02-27T10:01:35.350Z,103160.88
2023-02-27T10:04:26.586Z,103169.09
2023-02-27T10:06:58.797Z,103150.44
2023-02-27T10:10:21.051Z,103150.28
2023-02-27T10:13:15.644Z,103160.09
2023-02-27T10:15:50.692Z,103149.53
2023-02-27T10:18:58.314Z,103157.38
2023-02-27T10:21:50.429Z,103159.00
2023-02-27T10:24:19.204Z,103155.28
2023-02-27T10:26:46.260Z,103118.75
2023-02-27T10:29:29.431Z,103153.25
2023-02-27T10:32:35.232Z,103150.78
2023-02-27T10:35:24.879Z,103148.19
2023-02-27T10:37:59.171Z,103115.56
2023-02-27T10:40:26.977Z,103151.81
2023-02-27T10:42:56.702Z,103115.78
2023-02-27T10:45:25.909Z,103141.88
2023-02-27T10:47:55.441Z,103148.69
2023-02-27T10:50:36.115Z,103136.59
2023-02-27T10:53:17.203Z,103129.28
2023-02-27T10:55:50.551Z,103131.44
2023-02-27T10:58:23.140Z,103129.38
2023-02-27T11:01:00.703Z,103124.41
2023-02-27T11:03:50.524Z,103118.88
2023-02-27T11:06:27.905Z,103117.78
2023-02-27T11:09:33.979Z,103114.44
2023-02-27T11:12:28.180Z,103093.50
2023-02-27T11:15:00.141Z,103087.06
2023-02-27T11:17:32.837Z,103079.47
2023-02-27T11:20:01.341Z,103074.19
2023-02-27T11:22:31.085Z,103099.75
2023-02-27T11:25:27.048Z,103100.16
2023-02-27T11:28:32.010Z,103088.44
2023-02-27T11:31:06.344Z,103088.47
2023-02-27T11:33:40.413Z,103068.53
2023-02-27T11:36:10.131Z,103078.41
2023-02-27T11:38:36.841Z,103050.09
2023-02-27T11:41:09.599Z,103080.03
2023-02-27T11:44:05.894Z,103087.16
2023-02-27T11:46:54.754Z,103074.75
2023-02-27T11:49:35.453Z,103071.97
2023-02-27T11:52:25.689Z,103067.22
2023-02-27T11:54:59.845Z,103070.19
2023-02-27T11:57:41.246Z,103065.75
2023-02-27T12:00:22.961Z,103054.13
2023-02-27T12:03:24.097Z,103055.00
2023-02-27T12:06:09.998Z,103026.94
2023-02-27T12:08:56.459Z,103021.34
2023-02-27T12:11:28.807Z,103037.50
2023-02-27T12:14:44.641Z,103053.38
2023-02-27T12:17:54.301Z,103047.91
2023-02-27T12:20:33.706Z,103060.13
2023-02-27T12:23:07.229Z,103047.31
2023-02-27T12:25:50.153Z,103037.16
2023-02-27T12:28:43.181Z,103039.13
2023-02-27T12:31:37.196Z,103037.47
2023-02-27T12:34:30.559Z,103039.06
2023-02-27T12:41:06.489Z,103043.72
2023-02-27T12:44:12.958Z,103043.41
2023-02-27T12:47:02.743Z,103043.81
2023-02-27T12:49:58.540Z,103040.31
2023-02-27T12:53:02.809Z,103040.88
2023-02-27T12:55:40.593Z,103036.25
2023-02-27T12:58:40.390Z,103043.94
2023-02-27T13:01:46.004Z,103041.84
2023-02-27T13:04:25.891Z,103040.84
2023-02-27T13:07:10.365Z,103055.06
2023-02-27T13:09:59.424Z,103039.53
2023-02-27T13:12:44.248Z,103035.22
2023-02-27T13:15:34.737Z,103030.53
2023-02-27T13:18:30.726Z,103040.16
2023-02-27T13:21:08.305Z,103035.09
2023-02-27T13:23:56.510Z,103028.84
2023-02-27T13:26:37.722Z,103032.69
2023-02-27T13:29:13.022Z,103030.09
2023-02-27T13:32:02.409Z,103035.03
2023-02-27T13:34:52.438Z,103010.66
2023-02-27T13:37:19.425Z,103032.22
2023-02-27T13:39:54.813Z,103021.25
2023-02-27T13:42:34.050Z,103017.34
2023-02-27T13:45:03.261Z,103023.53
2023-02-27T13:47:42.547Z,103023.94
2023-02-27T13:50:18.633Z,103014.19
2023-02-27T13:52:47.280Z,103015.66
2023-02-27T13:55:43.538Z,103012.94
2023-02-27T13:58:19.530Z,102996.22
2023-02-27T14:01:06.074Z,103005.97
2023-02-27T14:03:36.413Z,103011.19
2023-02-27T14:06:10.659Z,103019.97
2023-02-27T14:08:50.798Z,103010.44
2023-02-27T14:11:45.214Z,103020.44
2023-02-27T14:14:45.768Z,103012.50
2023-02-27T14:17:38.626Z,103006.25
2023-02-27T14:20:31.905Z,103012.81
2023-02-27T14:23:17.607Z,103013.88
2023-02-27T14:25:53.382Z,103016.66
2023-02-27T14:28:41.982Z,103014.94
2023-02-27T14:31:32.183Z,103027.66
2023-02-27T14:34:10.031Z,103023.41
2023-02-27T14:36:45.617Z,103021.66
2023-02-27T14:39:34.960Z,103001.56
2023-02-27T14:42:08.406Z,103012.84
2023-02-27T14:44:43.886Z,103002.13
2023-02-27T14:47:19.171Z,103001.41
2023-02-27T14:49:51.118Z,103002.72
2023-02-27T14:52:32.988Z,103002.72
2023-02-27T14:55:37.270Z,103002.22
2023-02-27T14:58:22.366Z,103005.66
2023-02-27T15:01:21.572Z,103003.00
2023-02-27T15:03:51.921Z,102987.09
2023-02-27T15:06:27.769Z,102997.50
2023-02-27T15:09:02.113Z,102994.00
2023-02-27T15:11:57.413Z,102958.66
2023-02-27T15:14:40.419Z,102983.63
2023-02-27T15:17:19.430Z,102985.28
2023-02-27T15:20:04.362Z,102985.88
2023-02-27T15:22:39.986Z,102993.13
2023-02-27T15:25:27.126Z,102988.78
2023-02-27T15:28:01.179Z,103009.63
2023-02-27T15:30:40.387Z,102989.09
2023-02-27T15:33:17.406Z,102987.91
2023-02-27T15:35:50.400Z,102998.03
2023-02-27T15:38:35.146Z,102991.34
2023-02-27T15:41:08.835Z,102960.38
2023-02-27T15:43:38.619Z,102984.16
2023-02-27T15:46:06.612Z,102988.84
2023-02-27T15:48:40.446Z,102990.34
2023-02-27T15:51:19.663Z,102994.28
2023-02-27T15:53:56.253Z,102971.78
2023-02-27T15:56:33.388Z,102988.03
2023-02-27T15:59:13.500Z,102988.84
2023-02-27T16:01:43.567Z,102974.06
2023-02-27T16:04:24.811Z,102973.53
2023-02-27T16:07:03.525Z,103005.72
2023-02-27T16:09:35.934Z,102975.03
2023-02-27T16:12:21.963Z,103003.19
2023-02-27T16:14:55.968Z,103002.31
2023-02-27T16:17:32.454Z,103009.69
2023-02-27T16:20:46.684Z,103008.75
2023-02-27T16:23:29.383Z,103008.00
2023-02-27T16:26:09.537Z,103022.66
2023-02-27T16:28:58.074Z,103008.31
2023-02-27T16:31:43.523Z,103018.41
2023-02-27T16:34:16.170Z,103027.59
2023-02-27T16:36:59.295Z,103015.22
2023-02-27T16:39:39.445Z,103014.53
2023-02-27T16:42:06.143Z,103007.72
2023-02-27T16:44:32.988Z,102999.25
2023-02-27T16:47:06.395Z,103022.44
2023-02-27T16:49:53.611Z,103026.91
2023-02-27T16:52:26.512Z,103030.75
2023-02-27T16:55:06.046Z,103036.41
2023-02-27T16:57:33.965Z,103027.78
2023-02-27T17:00:01.410Z,103034.44
2023-02-27T17:02:28.624Z,103042.63
2023-02-27T17:05:09.035Z,103050.03
2023-02-27T17:07:37.460Z,103011.47
2023-02-27T17:10:14.108Z,103045.94
2023-02-27T17:12:45.052Z,103041.84
2023-02-27T17:15:12.027Z,103032.38
2023-02-27T17:17:38.798Z,103036.13
2023-02-27T17:20:07.372Z,103053.06
2023-02-27T17:22:41.038Z,103052.50
2023-02-27T17:25:10.531Z,103044.34
2023-02-27T17:27:38.189Z,103020.84
2023-02-27T17:30:06.473Z,103043.81
2023-02-27T17:32:34.817Z,103050.09
2023-02-27T17:35:01.772Z,103049.53
2023-02-27T17:37:28.567Z,103039.09
2023-02-27T17:39:55.436Z,103044.69
2023-02-27T17:42:27.012Z,103051.94
2023-02-27T17:44:53.670Z,103071.50
2023-02-27T17:47:20.432Z,103071.66
2023-02-27T17:49:47.623Z,103053.38
2023-02-27T17:52:15.138Z,103073.72
2023-02-27T17:54:41.807Z,103059.91
2023-02-27T18:01:15.785Z,103045.38
2023-02-27T18:03:45.863Z,103037.84
2023-02-27T18:06:14.997Z,103067.00
2023-02-27T18:08:44.593Z,103061.91
2023-02-27T18:11:13.109Z,103081.44
2023-02-27T18:13:43.348Z,103079.00
2023-02-27T18:16:12.680Z,103090.72
2023-02-27T18:18:40.774Z,103076.94
2023-02-27T18:21:11.506Z,103079.00
2023-02-27T18:23:38.245Z,103079.28
2023-02-27T18:26:05.496Z,103105.09
2023-02-27T18:28:32.776Z,103097.28
2023-02-27T18:30:59.436Z,103084.28
2023-02-27T18:33:27.513Z,103063.94
2023-02-27T18:35:54.798Z,103039.50
2023-02-27T18:38:21.418Z,103066.16
2023-02-27T18:40:50.569Z,103090.22
2023-02-27T18:43:19.761Z,103094.88
2023-02-27T18:45:48.980Z,103100.44
2023-02-27T18:48:17.944Z,103099.69
2023-02-27T18:50:44.685Z,103090.16
2023-02-27T18:53:11.402Z,103090.22
2023-02-27T18:55:38.675Z,103077.13
2023-02-27T18:58:06.224Z,103095.94
2023-02-27T19:00:33.142Z,103067.69
2023-02-27T19:03:04.318Z,103101.50
2023-02-27T19:05:31.054Z,103117.63
2023-02-27T19:07:58.055Z,103102.75
2023-02-27T19:10:24.687Z,103093.22
2023-02-27T19:12:51.785Z,103120.75
2023-02-27T19:15:18.735Z,103106.72
2023-02-27T19:17:46.806Z,103117.38
2023-02-27T19:20:16.623Z,103122.78
2023-02-27T19:22:45.782Z,103119.34
2023-02-27T19:25:17.278Z,103131.81
2023-02-27T19:27:46.061Z,103119.53
2023-02-27T19:30:14.606Z,103129.34
2023-02-27T19:32:43.768Z,103132.03
2023-02-27T19:35:15.314Z,103129.25
2023-02-27T19:37:48.207Z,103128.34
2023-02-27T19:40:15.929Z,103131.75
2023-02-27T19:42:44.804Z,103138.91
2023-02-27T19:45:11.587Z,103140.69
2023-02-27T19:47:40.712Z,103134.47
2023-02-27T19:50:08.078Z,103098.09
2023-02-27T19:52:36.390Z,103137.25
2023-02-27T19:55:05.706Z,103084.22
2023-02-27T19:57:34.804Z,103114.28
2023-02-27T20:00:01.486Z,103117.09
2023-02-27T20:02:28.180Z,103110.06
2023-02-27T20:04:54.873Z,103117.25
2023-02-27T20:07:21.995Z,103113.78
2023-02-27T20:09:50.882Z,103124.47
2023-02-27T20:12:19.934Z,103094.34
2023-02-27T20:14:48.823Z,103126.19
2023-02-27T20:17:15.641Z,103146.63
2023-02-27T20:19:42.232Z,103123.56
2023-02-27T20:22:08.939Z,103121.72
2023-02-27T20:24:35.650Z,103145.72
2023-02-27T20:27:04.815Z,103109.41
2023-02-27T20:29:31.506Z,103128.00
2023-02-27T20:31:58.406Z,103131.50
2023-02-27T20:34:28.612Z,103113.75
2023-02-27T20:36:58.240Z,103150.06
2023-02-27T20:39:25.166Z,103142.06
2023-02-27T20:41:51.896Z,103127.09
2023-02-27T20:44:18.535Z,103126.34
2023-02-27T20:46:49.406Z,103135.28
2023-02-27T20:49:17.015Z,103123.16
2023-02-27T20:51:44.557Z,103119.75
2023-02-27T20:54:16.536Z,103113.75
2023-02-27T20:56:43.712Z,103129.84
2023-02-27T20:59:14.847Z,103136.94
2023-02-27T21:01:43.406Z,103133.63
2023-02-27T21:04:10.331Z,103083.16
2023-02-27T21:06:37.296Z,103143.41
2023-02-27T21:09:08.557Z,103100.09
2023-02-27T21:11:37.632Z,103105.47
2023-02-27T21:14:11.291Z,103138.38
2023-02-27T21:16:41.842Z,103140.28
2023-02-27T21:19:08.503Z,103114.81
2023-02-27T21:21:37.476Z,103149.66
2023-02-27T21:24:06.784Z,103139.47
2023-02-27T21:26:38.510Z,103136.09
2023-02-27T21:29:17.109Z,103150.44
2023-02-27T21:31:45.827Z,103142.47
2023-02-27T21:34:17.458Z,103159.53
2023-02-27T21:36:45.094Z,103137.44
2023-02-27T21:39:17.597Z,103147.25
2023-02-27T21:41:44.940Z,103151.75
2023-02-27T21:44:17.268Z,103141.19
2023-02-27T21:46:45.220Z,103092.59
2023-02-27T21:49:23.764Z,103149.38
2023-02-27T21:51:51.048Z,103152.13
2023-02-27T21:54:18.440Z,103158.50
2023-02-27T21:56:48.376Z,103142.59
2023-02-27T21:59:16.079Z,103154.16
2023-02-27T22:01:47.291Z,103163.22
2023-02-27T22:04:14.985Z,103156.06
2023-02-27T22:06:41.572Z,103120.66
2023-02-27T22:09:08.152Z,103146.25
2023-02-27T22:11:35.430Z,103139.22
2023-02-27T22:14:03.165Z,103145.47
2023-02-27T22:16:32.248Z,103142.72
2023-02-27T22:19:01.318Z,103135.69
2023-02-27T22:21:30.648Z,103131.34
2023-02-27T22:23:57.998Z,103112.84
2023-02-27T22:26:28.288Z,103133.22
2023-02-27T22:28:59.375Z,103146.59
2023-02-27T22:31:34.746Z,103130.69
2023-02-27T22:34:08.937Z,103143.25
2023-02-27T22:36:36.493Z,103144.16
2023-02-27T22:39:04.035Z,103169.16
2023-02-27T22:41:35.259Z,103159.22
2023-02-27T22:44:07.369Z,103157.47
2023-02-27T22:46:39.533Z,103162.75
2023-02-27T22:49:20.289Z,103168.13
2023-02-27T22:51:50.833Z,103166.25
2023-02-27T22:54:24.318Z,103141.44
2023-02-27T22:56:58.045Z,103145.88
2023-02-27T22:59:26.228Z,103169.88
2023-02-27T23:01:55.270Z,103163.63
2023-02-27T23:04:27.185Z,103145.06
2023-02-27T23:06:56.946Z,103154.81
2023-02-27T23:09:27.358Z,103176.16
2023-02-27T23:11:55.087Z,103165.53
2023-02-27T23:14:22.521Z,103174.50
2023-02-27T23:16:51.761Z,103170.06
2023-02-27T23:19:20.400Z,103161.38
2023-02-27T23:21:47.619Z,103098.50
2023-02-27T23:24:17.222Z,103174.78
2023-02-27T23:26:46.971Z,103170.47
2023-02-27T23:29:14.111Z,103174.88
2023-02-27T23:31:43.550Z,103163.50
2023-02-27T23:34:13.057Z,103178.56
2023-02-27T23:36:39.733Z,103150.25
2023-02-27T23:39:07.190Z,103186.72
2023-02-27T23:41:36.077Z,103168.03
2023-02-27T23:44:21.206Z,103129.13
2023-02-27T23:46:50.224Z,103167.28
2023-02-27T23:49:16.867Z,103160.28
2023-02-27T23:51:43.488Z,103185.09
2023-02-27T23:54:10.653Z,103180.63
2023-02-27T23:56:37.405Z,103181.56
2023-02-27T23:59:05.986Z,103162.09
